sensor_id;sensor_type;location;lat;lon;timestamp;P1;durP1;ratioP1;P2;durP2;ratioP2
41885;SDS011;27567;43.084;25.616;2024-03-08T00:00:59;1.70;;;0.90;;
41885;SDS011;27567;43.084;25.616;2024-03-08T00:03:43;1.42;;;0.90;;
41885;SDS011;27567;43.084;25.616;2024-03-08T00:06:27;1.60;;;0.93;;
41885;SDS011;27567;43.084;25.616;2024-03-08T00:09:11;14.52;;;7.68;;
41885;SDS011;27567;43.084;25.616;2024-03-08T00:11:54;15.75;;;7.90;;
41885;SDS011;27567;43.084;25.616;2024-03-08T00:14:38;22.48;;;11.82;;
41885;SDS011;27567;43.084;25.616;2024-03-08T00:17:22;22.60;;;11.98;;
41885;SDS011;27567;43.084;25.616;2024-03-08T00:20:07;22.75;;;12.57;;
41885;SDS011;27567;43.084;25.616;2024-03-08T00:22:54;27.25;;;13.80;;
41885;SDS011;27567;43.084;25.616;2024-03-08T00:25:41;27.85;;;14.55;;
41885;SDS011;27567;43.084;25.616;2024-03-08T00:28:25;29.90;;;15.25;;
41885;SDS011;27567;43.084;25.616;2024-03-08T00:31:11;23.17;;;13.40;;
41885;SDS011;27567;43.084;25.616;2024-03-08T00:33:55;29.67;;;15.30;;
41885;SDS011;27567;43.084;25.616;2024-03-08T00:36:39;31.25;;;15.50;;
41885;SDS011;27567;43.084;25.616;2024-03-08T00:39:23;31.95;;;14.13;;
41885;SDS011;27567;43.084;25.616;2024-03-08T00:42:07;34.03;;;16.27;;
41885;SDS011;27567;43.084;25.616;2024-03-08T00:44:51;37.42;;;17.05;;
41885;SDS011;27567;43.084;25.616;2024-03-08T00:47:35;38.60;;;16.20;;
41885;SDS011;27567;43.084;25.616;2024-03-08T00:50:19;32.17;;;16.60;;
41885;SDS011;27567;43.084;25.616;2024-03-08T00:53:03;36.53;;;17.40;;
41885;SDS011;27567;43.084;25.616;2024-03-08T00:55:48;42.15;;;18.60;;
41885;SDS011;27567;43.084;25.616;2024-03-08T00:58:32;44.35;;;18.67;;
41885;SDS011;27567;43.084;25.616;2024-03-08T01:01:18;37.55;;;18.20;;
41885;SDS011;27567;43.084;25.616;2024-03-08T01:04:01;40.67;;;18.92;;
41885;SDS011;27567;43.084;25.616;2024-03-08T01:06:45;44.83;;;18.55;;
41885;SDS011;27567;43.084;25.616;2024-03-08T01:09:31;44.90;;;19.20;;
41885;SDS011;27567;43.084;25.616;2024-03-08T01:12:15;42.33;;;19.48;;
41885;SDS011;27567;43.084;25.616;2024-03-08T01:14:59;45.85;;;20.13;;
41885;SDS011;27567;43.084;25.616;2024-03-08T01:17:43;47.97;;;19.17;;
41885;SDS011;27567;43.084;25.616;2024-03-08T01:20:27;46.33;;;21.17;;
41885;SDS011;27567;43.084;25.616;2024-03-08T01:23:11;43.40;;;19.83;;
41885;SDS011;27567;43.084;25.616;2024-03-08T01:25:55;45.13;;;19.45;;
41885;SDS011;27567;43.084;25.616;2024-03-08T01:28:42;49.80;;;22.63;;
41885;SDS011;27567;43.084;25.616;2024-03-08T01:31:26;47.20;;;21.30;;
41885;SDS011;27567;43.084;25.616;2024-03-08T01:34:12;49.20;;;22.15;;
41885;SDS011;27567;43.084;25.616;2024-03-08T01:36:56;46.70;;;21.50;;
41885;SDS011;27567;43.084;25.616;2024-03-08T01:39:41;55.95;;;22.63;;
41885;SDS011;27567;43.084;25.616;2024-03-08T01:42:25;53.45;;;22.63;;
41885;SDS011;27567;43.084;25.616;2024-03-08T01:45:10;56.05;;;24.77;;
41885;SDS011;27567;43.084;25.616;2024-03-08T01:47:53;56.70;;;25.08;;
41885;SDS011;27567;43.084;25.616;2024-03-08T01:50:38;56.55;;;24.42;;
41885;SDS011;27567;43.084;25.616;2024-03-08T01:53:23;59.85;;;24.67;;
41885;SDS011;27567;43.084;25.616;2024-03-08T01:56:08;60.08;;;25.55;;
41885;SDS011;27567;43.084;25.616;2024-03-08T01:58:52;60.42;;;24.70;;
41885;SDS011;27567;43.084;25.616;2024-03-08T02:01:37;59.10;;;24.15;;
41885;SDS011;27567;43.084;25.616;2024-03-08T02:04:21;61.58;;;24.23;;
41885;SDS011;27567;43.084;25.616;2024-03-08T02:07:05;64.85;;;26.15;;
41885;SDS011;27567;43.084;25.616;2024-03-08T02:09:49;55.17;;;23.88;;
41885;SDS011;27567;43.084;25.616;2024-03-08T02:12:34;55.00;;;23.92;;
41885;SDS011;27567;43.084;25.616;2024-03-08T02:15:18;68.07;;;26.42;;
41885;SDS011;27567;43.084;25.616;2024-03-08T02:18:03;60.13;;;25.55;;
41885;SDS011;27567;43.084;25.616;2024-03-08T02:20:47;58.80;;;24.10;;
41885;SDS011;27567;43.084;25.616;2024-03-08T02:23:37;59.40;;;26.20;;
41885;SDS011;27567;43.084;25.616;2024-03-08T02:26:21;68.57;;;27.80;;
41885;SDS011;27567;43.084;25.616;2024-03-08T02:29:05;65.18;;;27.52;;
41885;SDS011;27567;43.084;25.616;2024-03-08T02:31:50;64.30;;;25.77;;
41885;SDS011;27567;43.084;25.616;2024-03-08T02:34:34;55.85;;;24.92;;
41885;SDS011;27567;43.084;25.616;2024-03-08T02:37:18;57.95;;;26.35;;
41885;SDS011;27567;43.084;25.616;2024-03-08T02:40:03;59.83;;;25.58;;
41885;SDS011;27567;43.084;25.616;2024-03-08T02:42:46;62.45;;;25.65;;
41885;SDS011;27567;43.084;25.616;2024-03-08T02:45:31;61.47;;;26.20;;
41885;SDS011;27567;43.084;25.616;2024-03-08T02:48:15;54.13;;;23.48;;
41885;SDS011;27567;43.084;25.616;2024-03-08T02:50:59;53.55;;;24.10;;
41885;SDS011;27567;43.084;25.616;2024-03-08T02:53:45;51.97;;;24.45;;
41885;SDS011;27567;43.084;25.616;2024-03-08T02:56:32;46.03;;;22.23;;
41885;SDS011;27567;43.084;25.616;2024-03-08T02:59:18;51.08;;;23.55;;
41885;SDS011;27567;43.084;25.616;2024-03-08T03:02:02;53.10;;;23.05;;
41885;SDS011;27567;43.084;25.616;2024-03-08T03:04:46;50.33;;;22.95;;
41885;SDS011;27567;43.084;25.616;2024-03-08T03:07:30;48.88;;;23.00;;
41885;SDS011;27567;43.084;25.616;2024-03-08T03:10:18;59.20;;;22.98;;
41885;SDS011;27567;43.084;25.616;2024-03-08T03:13:02;52.45;;;23.67;;
41885;SDS011;27567;43.084;25.616;2024-03-08T03:15:48;45.85;;;21.27;;
41885;SDS011;27567;43.084;25.616;2024-03-08T03:18:32;48.90;;;22.80;;
41885;SDS011;27567;43.084;25.616;2024-03-08T03:21:16;46.20;;;21.70;;
41885;SDS011;27567;43.084;25.616;2024-03-08T03:24:00;44.97;;;20.27;;
41885;SDS011;27567;43.084;25.616;2024-03-08T03:26:44;42.85;;;20.35;;
41885;SDS011;27567;43.084;25.616;2024-03-08T03:29:29;43.67;;;21.30;;
41885;SDS011;27567;43.084;25.616;2024-03-08T03:32:14;47.83;;;21.70;;
41885;SDS011;27567;43.084;25.616;2024-03-08T03:34:58;46.15;;;21.92;;
41885;SDS011;27567;43.084;25.616;2024-03-08T03:37:42;44.60;;;20.80;;
41885;SDS011;27567;43.084;25.616;2024-03-08T03:40:29;48.38;;;22.42;;
41885;SDS011;27567;43.084;25.616;2024-03-08T03:43:13;45.40;;;20.73;;
41885;SDS011;27567;43.084;25.616;2024-03-08T03:45:57;42.80;;;21.40;;
41885;SDS011;27567;43.084;25.616;2024-03-08T03:48:40;42.75;;;21.45;;
41885;SDS011;27567;43.084;25.616;2024-03-08T03:51:25;65.93;;;21.60;;
41885;SDS011;27567;43.084;25.616;2024-03-08T03:54:09;40.55;;;18.88;;
41885;SDS011;27567;43.084;25.616;2024-03-08T03:56:53;93.53;;;22.35;;
41885;SDS011;27567;43.084;25.616;2024-03-08T03:59:37;42.00;;;20.17;;
41885;SDS011;27567;43.084;25.616;2024-03-08T04:02:21;38.55;;;18.25;;
41885;SDS011;27567;43.084;25.616;2024-03-08T04:05:05;41.53;;;18.92;;
41885;SDS011;27567;43.084;25.616;2024-03-08T04:07:50;36.35;;;17.80;;
41885;SDS011;27567;43.084;25.616;2024-03-08T04:10:34;41.72;;;17.98;;
41885;SDS011;27567;43.084;25.616;2024-03-08T04:13:17;41.47;;;17.85;;
41885;SDS011;27567;43.084;25.616;2024-03-08T04:16:01;39.25;;;18.00;;
41885;SDS011;27567;43.084;25.616;2024-03-08T04:18:45;38.90;;;17.05;;
41885;SDS011;27567;43.084;25.616;2024-03-08T04:21:29;36.85;;;18.60;;
41885;SDS011;27567;43.084;25.616;2024-03-08T04:24:13;36.30;;;17.08;;
41885;SDS011;27567;43.084;25.616;2024-03-08T04:26:57;38.58;;;17.30;;
41885;SDS011;27567;43.084;25.616;2024-03-08T04:29:42;39.95;;;18.77;;
41885;SDS011;27567;43.084;25.616;2024-03-08T04:32:26;34.35;;;16.83;;
41885;SDS011;27567;43.084;25.616;2024-03-08T04:35:13;31.40;;;15.50;;
41885;SDS011;27567;43.084;25.616;2024-03-08T04:37:58;39.17;;;18.55;;
41885;SDS011;27567;43.084;25.616;2024-03-08T04:40:42;30.58;;;15.48;;
41885;SDS011;27567;43.084;25.616;2024-03-08T04:43:26;42.17;;;18.38;;
41885;SDS011;27567;43.084;25.616;2024-03-08T04:46:10;34.03;;;15.77;;
41885;SDS011;27567;43.084;25.616;2024-03-08T04:48:54;35.13;;;17.80;;
41885;SDS011;27567;43.084;25.616;2024-03-08T04:51:38;35.78;;;17.05;;
41885;SDS011;27567;43.084;25.616;2024-03-08T04:54:22;35.15;;;15.88;;
41885;SDS011;27567;43.084;25.616;2024-03-08T04:57:06;40.33;;;18.55;;
41885;SDS011;27567;43.084;25.616;2024-03-08T04:59:51;38.83;;;17.42;;
41885;SDS011;27567;43.084;25.616;2024-03-08T05:02:35;45.80;;;19.95;;
41885;SDS011;27567;43.084;25.616;2024-03-08T05:05:20;48.17;;;20.25;;
41885;SDS011;27567;43.084;25.616;2024-03-08T05:08:04;51.63;;;20.77;;
41885;SDS011;27567;43.084;25.616;2024-03-08T05:10:49;58.80;;;21.45;;
41885;SDS011;27567;43.084;25.616;2024-03-08T05:13:33;52.67;;;22.83;;
41885;SDS011;27567;43.084;25.616;2024-03-08T05:16:17;51.35;;;22.00;;
41885;SDS011;27567;43.084;25.616;2024-03-08T05:19:02;55.13;;;22.35;;
41885;SDS011;27567;43.084;25.616;2024-03-08T05:21:47;56.25;;;23.45;;
41885;SDS011;27567;43.084;25.616;2024-03-08T05:24:31;66.68;;;25.17;;
41885;SDS011;27567;43.084;25.616;2024-03-08T05:27:15;63.92;;;26.23;;
41885;SDS011;27567;43.084;25.616;2024-03-08T05:29:59;58.80;;;26.02;;
41885;SDS011;27567;43.084;25.616;2024-03-08T05:32:43;72.82;;;26.45;;
41885;SDS011;27567;43.084;25.616;2024-03-08T05:35:30;76.45;;;27.70;;
41885;SDS011;27567;43.084;25.616;2024-03-08T05:38:14;68.20;;;25.70;;
41885;SDS011;27567;43.084;25.616;2024-03-08T05:40:58;69.63;;;26.40;;
41885;SDS011;27567;43.084;25.616;2024-03-08T05:43:42;61.45;;;25.90;;
41885;SDS011;27567;43.084;25.616;2024-03-08T05:46:26;60.95;;;24.98;;
41885;SDS011;27567;43.084;25.616;2024-03-08T05:49:10;62.78;;;26.35;;
41885;SDS011;27567;43.084;25.616;2024-03-08T05:51:55;62.05;;;24.70;;
41885;SDS011;27567;43.084;25.616;2024-03-08T05:54:39;65.25;;;26.10;;
41885;SDS011;27567;43.084;25.616;2024-03-08T05:57:24;59.20;;;24.20;;
41885;SDS011;27567;43.084;25.616;2024-03-08T06:00:09;62.90;;;25.73;;
41885;SDS011;27567;43.084;25.616;2024-03-08T06:02:54;63.97;;;26.23;;
41885;SDS011;27567;43.084;25.616;2024-03-08T06:05:39;66.72;;;27.50;;
41885;SDS011;27567;43.084;25.616;2024-03-08T06:08:25;69.15;;;26.55;;
41885;SDS011;27567;43.084;25.616;2024-03-08T06:11:17;65.07;;;26.10;;
41885;SDS011;27567;43.084;25.616;2024-03-08T06:14:02;71.30;;;26.45;;
41885;SDS011;27567;43.084;25.616;2024-03-08T06:16:46;66.18;;;26.73;;
41885;SDS011;27567;43.084;25.616;2024-03-08T06:19:30;60.75;;;26.70;;
41885;SDS011;27567;43.084;25.616;2024-03-08T06:22:14;61.28;;;26.42;;
41885;SDS011;27567;43.084;25.616;2024-03-08T06:24:58;70.88;;;26.70;;
41885;SDS011;27567;43.084;25.616;2024-03-08T06:27:42;66.07;;;26.77;;
41885;SDS011;27567;43.084;25.616;2024-03-08T06:30:27;68.70;;;27.55;;
41885;SDS011;27567;43.084;25.616;2024-03-08T06:33:11;64.30;;;27.42;;
41885;SDS011;27567;43.084;25.616;2024-03-08T06:35:55;63.28;;;25.88;;
41885;SDS011;27567;43.084;25.616;2024-03-08T06:38:42;54.72;;;24.30;;
41885;SDS011;27567;43.084;25.616;2024-03-08T06:41:30;67.35;;;25.45;;
41885;SDS011;27567;43.084;25.616;2024-03-08T06:44:15;63.05;;;25.10;;
41885;SDS011;27567;43.084;25.616;2024-03-08T06:47:00;58.15;;;24.75;;
41885;SDS011;27567;43.084;25.616;2024-03-08T06:49:44;55.13;;;24.75;;
41885;SDS011;27567;43.084;25.616;2024-03-08T06:52:29;73.43;;;28.95;;
41885;SDS011;27567;43.084;25.616;2024-03-08T06:55:13;92.90;;;39.33;;
41885;SDS011;27567;43.084;25.616;2024-03-08T06:57:56;73.22;;;29.90;;
41885;SDS011;27567;43.084;25.616;2024-03-08T07:00:41;73.50;;;32.45;;
41885;SDS011;27567;43.084;25.616;2024-03-08T07:03:26;62.85;;;30.30;;
41885;SDS011;27567;43.084;25.616;2024-03-08T07:06:11;63.95;;;25.42;;
41885;SDS011;27567;43.084;25.616;2024-03-08T07:08:54;62.10;;;25.00;;
41885;SDS011;27567;43.084;25.616;2024-03-08T07:11:38;60.10;;;26.92;;
41885;SDS011;27567;43.084;25.616;2024-03-08T07:14:22;63.55;;;27.10;;
41885;SDS011;27567;43.084;25.616;2024-03-08T07:17:07;57.13;;;26.00;;
41885;SDS011;27567;43.084;25.616;2024-03-08T07:19:52;59.67;;;28.00;;
41885;SDS011;27567;43.084;25.616;2024-03-08T07:22:38;54.25;;;25.65;;
41885;SDS011;27567;43.084;25.616;2024-03-08T07:25:22;57.30;;;23.70;;
41885;SDS011;27567;43.084;25.616;2024-03-08T07:28:07;53.08;;;24.65;;
41885;SDS011;27567;43.084;25.616;2024-03-08T07:30:51;54.25;;;23.80;;
41885;SDS011;27567;43.084;25.616;2024-03-08T07:33:35;59.17;;;25.63;;
41885;SDS011;27567;43.084;25.616;2024-03-08T07:36:19;55.80;;;24.15;;
41885;SDS011;27567;43.084;25.616;2024-03-08T07:39:03;55.33;;;24.67;;
41885;SDS011;27567;43.084;25.616;2024-03-08T07:41:49;49.58;;;24.05;;
41885;SDS011;27567;43.084;25.616;2024-03-08T07:44:36;59.63;;;24.02;;
41885;SDS011;27567;43.084;25.616;2024-03-08T07:47:20;55.85;;;23.73;;
41885;SDS011;27567;43.084;25.616;2024-03-08T07:50:04;50.95;;;23.27;;
41885;SDS011;27567;43.084;25.616;2024-03-08T07:52:48;59.25;;;23.77;;
41885;SDS011;27567;43.084;25.616;2024-03-08T07:55:32;51.47;;;24.13;;
41885;SDS011;27567;43.084;25.616;2024-03-08T08:26:40;42.85;;;18.40;;
41885;SDS011;27567;43.084;25.616;2024-03-08T08:29:24;35.17;;;16.38;;
41885;SDS011;27567;43.084;25.616;2024-03-08T08:32:09;38.10;;;16.55;;
41885;SDS011;27567;43.084;25.616;2024-03-08T08:34:54;34.13;;;17.33;;
41885;SDS011;27567;43.084;25.616;2024-03-08T08:37:38;42.45;;;19.75;;
41885;SDS011;27567;43.084;25.616;2024-03-08T08:40:22;51.60;;;25.80;;
41885;SDS011;27567;43.084;25.616;2024-03-08T08:43:12;52.55;;;25.63;;
41885;SDS011;27567;43.084;25.616;2024-03-08T08:45:57;76.80;;;31.80;;
41885;SDS011;27567;43.084;25.616;2024-03-08T08:48:41;83.82;;;36.20;;
41885;SDS011;27567;43.084;25.616;2024-03-08T08:51:25;47.13;;;20.02;;
41885;SDS011;27567;43.084;25.616;2024-03-08T08:54:11;28.45;;;14.93;;
41885;SDS011;27567;43.084;25.616;2024-03-08T08:57:00;32.83;;;15.05;;
41885;SDS011;27567;43.084;25.616;2024-03-08T08:59:51;147.43;;;45.35;;
41885;SDS011;27567;43.084;25.616;2024-03-08T09:02:35;29.30;;;13.90;;
41885;SDS011;27567;43.084;25.616;2024-03-08T09:05:19;31.17;;;14.63;;
41885;SDS011;27567;43.084;25.616;2024-03-08T09:08:03;33.40;;;15.38;;
41885;SDS011;27567;43.084;25.616;2024-03-08T09:10:46;26.02;;;13.98;;
41885;SDS011;27567;43.084;25.616;2024-03-08T09:13:32;34.45;;;16.50;;
41885;SDS011;27567;43.084;25.616;2024-03-08T09:16:17;34.45;;;16.63;;
41885;SDS011;27567;43.084;25.616;2024-03-08T09:19:01;24.35;;;13.15;;
41885;SDS011;27567;43.084;25.616;2024-03-08T09:21:45;26.02;;;11.90;;
41885;SDS011;27567;43.084;25.616;2024-03-08T09:24:28;22.85;;;12.30;;
41885;SDS011;27567;43.084;25.616;2024-03-08T09:27:13;35.90;;;13.95;;
41885;SDS011;27567;43.084;25.616;2024-03-08T09:29:57;28.85;;;12.98;;
41885;SDS011;27567;43.084;25.616;2024-03-08T09:32:41;24.80;;;11.57;;
41885;SDS011;27567;43.084;25.616;2024-03-08T09:35:28;24.38;;;12.65;;
41885;SDS011;27567;43.084;25.616;2024-03-08T09:38:14;29.23;;;13.77;;
41885;SDS011;27567;43.084;25.616;2024-03-08T09:40:58;25.13;;;11.38;;
41885;SDS011;27567;43.084;25.616;2024-03-08T09:43:42;32.75;;;13.77;;
41885;SDS011;27567;43.084;25.616;2024-03-08T09:46:26;28.95;;;11.63;;
41885;SDS011;27567;43.084;25.616;2024-03-08T09:49:10;20.85;;;11.13;;
41885;SDS011;27567;43.084;25.616;2024-03-08T09:51:55;22.90;;;10.23;;
41885;SDS011;27567;43.084;25.616;2024-03-08T09:54:39;27.38;;;11.80;;
41885;SDS011;27567;43.084;25.616;2024-03-08T09:57:27;21.77;;;10.88;;
41885;SDS011;27567;43.084;25.616;2024-03-08T10:00:12;26.67;;;12.75;;
41885;SDS011;27567;43.084;25.616;2024-03-08T10:03:06;29.13;;;13.10;;
41885;SDS011;27567;43.084;25.616;2024-03-08T10:05:51;26.77;;;13.65;;
41885;SDS011;27567;43.084;25.616;2024-03-08T10:08:34;26.48;;;12.80;;
41885;SDS011;27567;43.084;25.616;2024-03-08T10:11:19;32.22;;;12.63;;
41885;SDS011;27567;43.084;25.616;2024-03-08T10:14:02;25.05;;;11.30;;
41885;SDS011;27567;43.084;25.616;2024-03-08T10:16:46;28.52;;;11.23;;
41885;SDS011;27567;43.084;25.616;2024-03-08T10:19:30;27.10;;;13.07;;
41885;SDS011;27567;43.084;25.616;2024-03-08T10:22:15;23.77;;;12.15;;
41885;SDS011;27567;43.084;25.616;2024-03-08T10:24:58;22.73;;;11.85;;
41885;SDS011;27567;43.084;25.616;2024-03-08T10:27:44;21.80;;;11.55;;
41885;SDS011;27567;43.084;25.616;2024-03-08T10:30:28;26.17;;;11.63;;
41885;SDS011;27567;43.084;25.616;2024-03-08T10:33:13;25.38;;;11.23;;
41885;SDS011;27567;43.084;25.616;2024-03-08T10:35:57;22.48;;;10.98;;
41885;SDS011;27567;43.084;25.616;2024-03-08T10:38:42;21.85;;;11.52;;
41885;SDS011;27567;43.084;25.616;2024-03-08T10:41:30;26.70;;;11.63;;
41885;SDS011;27567;43.084;25.616;2024-03-08T10:44:23;22.92;;;12.05;;
41885;SDS011;27567;43.084;25.616;2024-03-08T10:47:29;26.55;;;12.32;;
41885;SDS011;27567;43.084;25.616;2024-03-08T10:52:58;42.63;;;19.70;;
41885;SDS011;27567;43.084;25.616;2024-03-08T10:55:44;41.53;;;19.90;;
41885;SDS011;27567;43.084;25.616;2024-03-08T10:58:29;37.35;;;18.45;;
41885;SDS011;27567;43.084;25.616;2024-03-08T11:01:13;38.03;;;17.70;;
41885;SDS011;27567;43.084;25.616;2024-03-08T11:03:58;40.97;;;17.48;;
41885;SDS011;27567;43.084;25.616;2024-03-08T11:06:44;40.25;;;17.42;;
41885;SDS011;27567;43.084;25.616;2024-03-08T11:09:35;43.83;;;19.48;;
41885;SDS011;27567;43.084;25.616;2024-03-08T11:15:12;40.60;;;18.70;;
41885;SDS011;27567;43.084;25.616;2024-03-08T11:17:58;39.67;;;18.33;;
41885;SDS011;27567;43.084;25.616;2024-03-08T11:20:42;41.63;;;18.48;;
41885;SDS011;27567;43.084;25.616;2024-03-08T11:23:26;31.60;;;16.10;;
41885;SDS011;27567;43.084;25.616;2024-03-08T11:26:19;34.42;;;16.80;;
41885;SDS011;27567;43.084;25.616;2024-03-08T11:37:41;37.67;;;14.88;;
41885;SDS011;27567;43.084;25.616;2024-03-08T11:40:25;30.95;;;14.35;;
41885;SDS011;27567;43.084;25.616;2024-03-08T11:43:10;31.98;;;16.67;;
41885;SDS011;27567;43.084;25.616;2024-03-08T11:46:07;29.35;;;14.25;;
41885;SDS011;27567;43.084;25.616;2024-03-08T11:48:54;33.22;;;16.30;;
41885;SDS011;27567;43.084;25.616;2024-03-08T11:51:41;28.23;;;14.10;;
41885;SDS011;27567;43.084;25.616;2024-03-08T11:54:27;27.02;;;12.45;;
41885;SDS011;27567;43.084;25.616;2024-03-08T11:57:13;24.70;;;12.80;;
41885;SDS011;27567;43.084;25.616;2024-03-08T11:59:58;30.20;;;14.68;;
41885;SDS011;27567;43.084;25.616;2024-03-08T12:03:06;26.42;;;13.02;;
41885;SDS011;27567;43.084;25.616;2024-03-08T12:05:56;36.80;;;16.42;;
41885;SDS011;27567;43.084;25.616;2024-03-08T12:08:41;30.08;;;14.85;;
41885;SDS011;27567;43.084;25.616;2024-03-08T12:11:30;28.35;;;13.80;;
41885;SDS011;27567;43.084;25.616;2024-03-08T12:14:17;32.63;;;16.00;;
41885;SDS011;27567;43.084;25.616;2024-03-08T12:17:02;31.00;;;16.13;;
41885;SDS011;27567;43.084;25.616;2024-03-08T12:19:46;35.33;;;18.33;;
41885;SDS011;27567;43.084;25.616;2024-03-08T12:22:31;40.72;;;19.05;;
41885;SDS011;27567;43.084;25.616;2024-03-08T12:25:15;36.10;;;17.20;;
41885;SDS011;27567;43.084;25.616;2024-03-08T12:28:12;35.33;;;18.08;;
41885;SDS011;27567;43.084;25.616;2024-03-08T12:31:02;38.45;;;17.30;;
41885;SDS011;27567;43.084;25.616;2024-03-08T12:33:49;34.80;;;16.70;;
41885;SDS011;27567;43.084;25.616;2024-03-08T12:36:33;45.88;;;20.85;;
41885;SDS011;27567;43.084;25.616;2024-03-08T12:39:18;45.60;;;21.95;;
41885;SDS011;27567;43.084;25.616;2024-03-08T12:42:06;40.35;;;19.55;;
41885;SDS011;27567;43.084;25.616;2024-03-08T12:44:50;40.78;;;19.52;;
41885;SDS011;27567;43.084;25.616;2024-03-08T12:47:34;39.08;;;18.13;;
41885;SDS011;27567;43.084;25.616;2024-03-08T12:50:19;39.42;;;18.27;;
41885;SDS011;27567;43.084;25.616;2024-03-08T12:53:03;35.15;;;16.65;;
41885;SDS011;27567;43.084;25.616;2024-03-08T12:55:48;43.55;;;20.85;;
41885;SDS011;27567;43.084;25.616;2024-03-08T12:58:32;44.83;;;19.48;;
41885;SDS011;27567;43.084;25.616;2024-03-08T13:01:16;44.70;;;19.80;;
41885;SDS011;27567;43.084;25.616;2024-03-08T13:04:01;40.45;;;18.92;;
41885;SDS011;27567;43.084;25.616;2024-03-08T13:06:49;45.70;;;20.30;;
41885;SDS011;27567;43.084;25.616;2024-03-08T13:09:33;45.60;;;20.90;;
41885;SDS011;27567;43.084;25.616;2024-03-08T13:12:21;54.90;;;21.92;;
41885;SDS011;27567;43.084;25.616;2024-03-08T13:15:05;57.10;;;22.67;;
41885;SDS011;27567;43.084;25.616;2024-03-08T13:17:49;48.88;;;21.55;;
41885;SDS011;27567;43.084;25.616;2024-03-08T13:20:33;51.28;;;25.30;;
41885;SDS011;27567;43.084;25.616;2024-03-08T13:23:17;59.50;;;27.92;;
41885;SDS011;27567;43.084;25.616;2024-03-08T13:26:01;46.75;;;20.40;;
41885;SDS011;27567;43.084;25.616;2024-03-08T13:28:45;48.20;;;22.48;;
41885;SDS011;27567;43.084;25.616;2024-03-08T13:31:29;51.53;;;20.70;;
41885;SDS011;27567;43.084;25.616;2024-03-08T13:34:15;47.30;;;21.50;;
41885;SDS011;27567;43.084;25.616;2024-03-08T13:36:59;50.40;;;21.23;;
41885;SDS011;27567;43.084;25.616;2024-03-08T13:39:44;57.28;;;21.08;;
41885;SDS011;27567;43.084;25.616;2024-03-08T13:42:28;48.25;;;20.08;;
41885;SDS011;27567;43.084;25.616;2024-03-08T13:45:12;53.90;;;21.52;;
41885;SDS011;27567;43.084;25.616;2024-03-08T13:48:00;55.17;;;21.38;;
41885;SDS011;27567;43.084;25.616;2024-03-08T13:50:43;55.20;;;21.17;;
41885;SDS011;27567;43.084;25.616;2024-03-08T13:53:28;53.80;;;21.90;;
41885;SDS011;27567;43.084;25.616;2024-03-08T13:56:14;49.72;;;20.33;;
41885;SDS011;27567;43.084;25.616;2024-03-08T13:58:58;54.90;;;21.77;;
41885;SDS011;27567;43.084;25.616;2024-03-08T14:01:42;52.67;;;20.98;;
41885;SDS011;27567;43.084;25.616;2024-03-08T14:04:27;63.05;;;25.75;;
41885;SDS011;27567;43.084;25.616;2024-03-08T14:07:12;47.58;;;20.40;;
41885;SDS011;27567;43.084;25.616;2024-03-08T14:09:56;66.47;;;24.38;;
41885;SDS011;27567;43.084;25.616;2024-03-08T14:12:40;60.97;;;25.10;;
41885;SDS011;27567;43.084;25.616;2024-03-08T14:15:29;64.45;;;25.38;;
41885;SDS011;27567;43.084;25.616;2024-03-08T14:18:13;71.30;;;26.52;;
41885;SDS011;27567;43.084;25.616;2024-03-08T14:21:00;74.07;;;28.17;;
41885;SDS011;27567;43.084;25.616;2024-03-08T14:23:44;78.53;;;27.05;;
41885;SDS011;27567;43.084;25.616;2024-03-08T14:26:29;67.35;;;25.77;;
41885;SDS011;27567;43.084;25.616;2024-03-08T14:29:13;74.75;;;25.70;;
41885;SDS011;27567;43.084;25.616;2024-03-08T14:31:57;81.82;;;29.27;;
41885;SDS011;27567;43.084;25.616;2024-03-08T14:34:42;56.17;;;24.50;;
41885;SDS011;27567;43.084;25.616;2024-03-08T14:37:30;67.45;;;25.13;;
41885;SDS011;27567;43.084;25.616;2024-03-08T14:40:14;63.35;;;24.52;;
41885;SDS011;27567;43.084;25.616;2024-03-08T14:42:59;72.80;;;26.17;;
41885;SDS011;27567;43.084;25.616;2024-03-08T14:45:42;79.25;;;29.95;;
41885;SDS011;27567;43.084;25.616;2024-03-08T14:48:30;79.75;;;27.73;;
41885;SDS011;27567;43.084;25.616;2024-03-08T14:51:14;75.93;;;27.10;;
41885;SDS011;27567;43.084;25.616;2024-03-08T14:54:01;71.07;;;25.75;;
41885;SDS011;27567;43.084;25.616;2024-03-08T14:56:45;80.63;;;28.83;;
41885;SDS011;27567;43.084;25.616;2024-03-08T14:59:29;68.30;;;24.75;;
41885;SDS011;27567;43.084;25.616;2024-03-08T15:02:17;67.53;;;23.63;;
41885;SDS011;27567;43.084;25.616;2024-03-08T15:05:03;70.55;;;25.73;;
41885;SDS011;27567;43.084;25.616;2024-03-08T15:07:52;70.38;;;25.77;;
41885;SDS011;27567;43.084;25.616;2024-03-08T15:10:36;71.63;;;26.23;;
41885;SDS011;27567;43.084;25.616;2024-03-08T15:13:22;75.50;;;25.83;;
41885;SDS011;27567;43.084;25.616;2024-03-08T15:16:22;67.70;;;27.05;;
41885;SDS011;27567;43.084;25.616;2024-03-08T15:19:07;64.65;;;25.95;;
41885;SDS011;27567;43.084;25.616;2024-03-08T15:21:51;66.90;;;25.40;;
41885;SDS011;27567;43.084;25.616;2024-03-08T15:24:40;65.20;;;24.17;;
41885;SDS011;27567;43.084;25.616;2024-03-08T15:27:26;65.20;;;26.30;;
41885;SDS011;27567;43.084;25.616;2024-03-08T15:30:13;66.82;;;24.95;;
41885;SDS011;27567;43.084;25.616;2024-03-08T15:33:00;75.40;;;28.27;;
41885;SDS011;27567;43.084;25.616;2024-03-08T15:35:54;67.43;;;25.13;;
41885;SDS011;27567;43.084;25.616;2024-03-08T15:38:43;61.55;;;24.30;;
41885;SDS011;27567;43.084;25.616;2024-03-08T15:41:29;63.03;;;24.30;;
41885;SDS011;27567;43.084;25.616;2024-03-08T15:44:13;68.97;;;25.65;;
41885;SDS011;27567;43.084;25.616;2024-03-08T15:46:57;63.40;;;24.98;;
41885;SDS011;27567;43.084;25.616;2024-03-08T15:49:41;77.80;;;26.13;;
41885;SDS011;27567;43.084;25.616;2024-03-08T15:52:28;65.35;;;25.73;;
41885;SDS011;27567;43.084;25.616;2024-03-08T15:55:18;62.88;;;24.67;;
41885;SDS011;27567;43.084;25.616;2024-03-08T15:58:10;64.32;;;24.05;;
41885;SDS011;27567;43.084;25.616;2024-03-08T16:00:54;60.95;;;24.00;;
41885;SDS011;27567;43.084;25.616;2024-03-08T16:03:39;59.72;;;24.58;;
41885;SDS011;27567;43.084;25.616;2024-03-08T16:06:23;64.45;;;26.05;;
41885;SDS011;27567;43.084;25.616;2024-03-08T16:09:08;66.10;;;25.92;;
41885;SDS011;27567;43.084;25.616;2024-03-08T16:11:58;61.70;;;25.45;;
41885;SDS011;27567;43.084;25.616;2024-03-08T16:14:42;61.78;;;25.65;;
41885;SDS011;27567;43.084;25.616;2024-03-08T16:17:26;65.57;;;25.38;;
41885;SDS011;27567;43.084;25.616;2024-03-08T16:20:11;67.57;;;24.92;;
41885;SDS011;27567;43.084;25.616;2024-03-08T16:22:57;61.83;;;25.80;;
41885;SDS011;27567;43.084;25.616;2024-03-08T16:25:41;61.10;;;25.38;;
41885;SDS011;27567;43.084;25.616;2024-03-08T16:28:27;55.60;;;24.05;;
41885;SDS011;27567;43.084;25.616;2024-03-08T16:31:11;65.55;;;24.77;;
41885;SDS011;27567;43.084;25.616;2024-03-08T16:33:58;70.55;;;24.90;;